sensor_id;sensor_type;location;lat;lon;timestamp;pressure;altitude;pressure_sealevel;temperature;humidity
65127;BME280;51927;49.080;19.652;2022-07-05T00:01:43;94590.56;;;26.60;39.63
65127;BME280;51927;49.080;19.652;2022-07-05T00:03:43;94589.44;;;26.61;40.04
65127;BME280;51927;49.080;19.652;2022-07-05T00:05:43;94594.03;;;26.60;39.91
65127;BME280;51927;49.080;19.652;2022-07-05T00:07:43;94586.75;;;26.61;39.93
65127;BME280;51927;49.080;19.652;2022-07-05T00:09:45;94585.19;;;26.60;39.96
65127;BME280;51927;49.080;19.652;2022-07-05T00:11:45;94588.66;;;26.60;39.84
65127;BME280;51927;49.080;19.652;2022-07-05T00:13:45;94587.06;;;26.59;39.82
65127;BME280;51927;49.080;19.652;2022-07-05T00:15:45;94577.13;;;26.60;39.66
65127;BME280;51927;49.080;19.652;2022-07-05T00:17:45;94579.81;;;26.60;39.75
65127;BME280;51927;49.080;19.652;2022-07-05T00:19:46;94587.06;;;26.59;39.92
65127;BME280;51927;49.080;19.652;2022-07-05T00:21:46;94587.41;;;26.58;39.86
65127;BME280;51927;49.080;19.652;2022-07-05T00:23:46;94588.97;;;26.59;39.69
65127;BME280;51927;49.080;19.652;2022-07-05T00:25:46;94588.97;;;26.59;39.63
65127;BME280;51927;49.080;19.652;2022-07-05T00:27:47;94587.41;;;26.58;39.45
65127;BME280;51927;49.080;19.652;2022-07-05T00:29:47;94584.72;;;26.58;39.43
65127;BME280;51927;49.080;19.652;2022-07-05T00:31:47;94588.53;;;26.57;39.63
65127;BME280;51927;49.080;19.652;2022-07-05T00:33:47;94583.94;;;26.57;39.48
65127;BME280;51927;49.080;19.652;2022-07-05T00:35:47;94589.31;;;26.57;39.63
65127;BME280;51927;49.080;19.652;2022-07-05T00:37:47;94583.16;;;26.57;39.64
65127;BME280;51927;49.080;19.652;2022-07-05T00:39:48;94583.16;;;26.57;39.67
65127;BME280;51927;49.080;19.652;2022-07-05T00:41:48;94585.84;;;26.57;39.64
65127;BME280;51927;49.080;19.652;2022-07-05T00:43:55;94579.66;;;26.56;39.69
65127;BME280;51927;49.080;19.652;2022-07-05T00:45:56;94577.00;;;26.56;39.55
65127;BME280;51927;49.080;19.652;2022-07-05T00:47:56;94583.16;;;26.57;39.66
65127;BME280;51927;49.080;19.652;2022-07-05T00:49:56;94579.66;;;26.56;39.48
65127;BME280;51927;49.080;19.652;2022-07-05T00:51:57;94581.59;;;26.56;39.52
65127;BME280;51927;49.080;19.652;2022-07-05T00:53:59;94577.31;;;26.55;39.34
65127;BME280;51927;49.080;19.652;2022-07-05T00:55:59;94574.31;;;26.56;39.17
65127;BME280;51927;49.080;19.652;2022-07-05T00:57:59;94580.47;;;26.57;39.33
65127;BME280;51927;49.080;19.652;2022-07-05T01:00:00;94574.63;;;26.55;39.19
65127;BME280;51927;49.080;19.652;2022-07-05T01:02:00;94573.84;;;26.54;39.30
65127;BME280;51927;49.080;19.652;2022-07-05T01:04:00;94574.63;;;26.55;39.30
65127;BME280;51927;49.080;19.652;2022-07-05T01:06:00;94568.47;;;26.54;39.12
65127;BME280;51927;49.080;19.652;2022-07-05T01:08:01;94574.63;;;26.55;39.06
65127;BME280;51927;49.080;19.652;2022-07-05T01:10:01;94573.09;;;26.53;39.25
65127;BME280;51927;49.080;19.652;2022-07-05T01:12:02;94578.44;;;26.53;39.22
65127;BME280;51927;49.080;19.652;2022-07-05T01:14:02;94572.28;;;26.53;39.10
65127;BME280;51927;49.080;19.652;2022-07-05T01:16:03;94571.16;;;26.54;39.31
65127;BME280;51927;49.080;19.652;2022-07-05T01:18:04;94573.09;;;26.53;39.14
65127;BME280;51927;49.080;19.652;2022-07-05T01:20:05;94578.44;;;26.53;39.35
65127;BME280;51927;49.080;19.652;2022-07-05T01:22:09;94584.59;;;26.54;39.21
65127;BME280;51927;49.080;19.652;2022-07-05T01:24:13;94574.97;;;26.53;39.02
65127;BME280;51927;49.080;19.652;2022-07-05T01:26:13;94574.97;;;26.53;39.31
65127;BME280;51927;49.080;19.652;2022-07-05T01:28:14;94576.88;;;26.52;39.41
65127;BME280;51927;49.080;19.652;2022-07-05T01:30:14;94584.94;;;26.52;39.11
65127;BME280;51927;49.080;19.652;2022-07-05T01:32:15;94569.91;;;26.51;39.32
65127;BME280;51927;49.080;19.652;2022-07-05T01:34:15;94570.72;;;26.52;39.00
65127;BME280;51927;49.080;19.652;2022-07-05T01:36:15;94574.19;;;26.52;39.04
65127;BME280;51927;49.080;19.652;2022-07-05T01:38:16;94573.09;;;26.53;39.07
65127;BME280;51927;49.080;19.652;2022-07-05T01:40:17;94577.66;;;26.53;38.83
65127;BME280;51927;49.080;19.652;2022-07-05T01:42:18;94577.97;;;26.51;38.83
65127;BME280;51927;49.080;19.652;2022-07-05T01:44:18;94580.66;;;26.51;38.96
65127;BME280;51927;49.080;19.652;2022-07-05T01:46:18;94576.09;;;26.52;38.83
65127;BME280;51927;49.080;19.652;2022-07-05T01:48:21;94582.25;;;26.52;38.80
65127;BME280;51927;49.080;19.652;2022-07-05T01:50:21;94568.81;;;26.52;38.89
65127;BME280;51927;49.080;19.652;2022-07-05T01:52:22;94577.97;;;26.51;38.95
65127;BME280;51927;49.080;19.652;2022-07-05T01:54:24;94576.09;;;26.52;39.00
65127;BME280;51927;49.080;19.652;2022-07-05T01:56:24;94577.97;;;26.51;38.94
65127;BME280;51927;49.080;19.652;2022-07-05T01:58:25;94573.41;;;26.52;39.38
65127;BME280;51927;49.080;19.652;2022-07-05T02:00:25;94579.88;;;26.51;38.85
65127;BME280;51927;49.080;19.652;2022-07-05T02:02:25;94576.44;;;26.50;38.93
65127;BME280;51927;49.080;19.652;2022-07-05T02:04:26;94577.19;;;26.51;39.17
65127;BME280;51927;49.080;19.652;2022-07-05T02:06:26;94579.13;;;26.50;39.04
65127;BME280;51927;49.080;19.652;2022-07-05T02:08:29;94572.59;;;26.51;39.28
65127;BME280;51927;49.080;19.652;2022-07-05T02:10:30;94580.66;;;26.51;39.33
65127;BME280;51927;49.080;19.652;2022-07-05T02:12:30;94576.09;;;26.52;39.29
65127;BME280;51927;49.080;19.652;2022-07-05T02:14:30;94572.59;;;26.51;39.41
65127;BME280;51927;49.080;19.652;2022-07-05T02:16:31;94576.44;;;26.50;39.54
65127;BME280;51927;49.080;19.652;2022-07-05T02:18:31;94579.13;;;26.50;39.38
65127;BME280;51927;49.080;19.652;2022-07-05T02:20:31;94573.75;;;26.50;39.69
65127;BME280;51927;49.080;19.652;2022-07-05T02:22:32;94570.28;;;26.50;39.32
65127;BME280;51927;49.080;19.652;2022-07-05T02:24:33;94568.38;;;26.50;39.59
65127;BME280;51927;49.080;19.652;2022-07-05T02:26:33;94573.75;;;26.50;39.26
65127;BME280;51927;49.080;19.652;2022-07-05T02:28:33;94580.66;;;26.51;39.45
65127;BME280;51927;49.080;19.652;2022-07-05T02:30:33;94583.34;;;26.51;39.33
65127;BME280;51927;49.080;19.652;2022-07-05T02:32:33;94583.72;;;26.50;39.59
65127;BME280;51927;49.080;19.652;2022-07-05T02:34:34;94578.34;;;26.50;39.33
65127;BME280;51927;49.080;19.652;2022-07-05T02:36:34;94579.13;;;26.50;39.47
65127;BME280;51927;49.080;19.652;2022-07-05T02:38:34;94582.91;;;26.49;39.45
65127;BME280;51927;49.080;19.652;2022-07-05T02:40:34;94576.75;;;26.49;39.24
65127;BME280;51927;49.080;19.652;2022-07-05T02:42:35;94577.53;;;26.49;39.40
65127;BME280;51927;49.080;19.652;2022-07-05T02:44:35;94580.22;;;26.49;39.27
65127;BME280;51927;49.080;19.652;2022-07-05T02:46:35;94586.72;;;26.48;39.43
65127;BME280;51927;49.080;19.652;2022-07-05T02:48:35;94586.72;;;26.48;39.36
65127;BME280;51927;49.080;19.652;2022-07-05T02:50:36;94587.81;;;26.47;39.31
65127;BME280;51927;49.080;19.652;2022-07-05T02:52:36;94588.59;;;26.48;39.27
65127;BME280;51927;49.080;19.652;2022-07-05T02:54:36;94585.13;;;26.47;39.46
65127;BME280;51927;49.080;19.652;2022-07-05T02:56:36;94585.91;;;26.48;39.10
65127;BME280;51927;49.080;19.652;2022-07-05T02:58:37;94587.81;;;26.47;39.31
65127;BME280;51927;49.080;19.652;2022-07-05T03:00:38;94578.19;;;26.46;39.44
65127;BME280;51927;49.080;19.652;2022-07-05T03:02:38;94577.09;;;26.47;39.68
65127;BME280;51927;49.080;19.652;2022-07-05T03:04:38;94579.78;;;26.47;39.29
65127;BME280;51927;49.080;19.652;2022-07-05T03:06:39;94572.81;;;26.46;39.44
65127;BME280;51927;49.080;19.652;2022-07-05T03:08:40;94572.81;;;26.46;39.54
65127;BME280;51927;49.080;19.652;2022-07-05T03:10:40;94574.72;;;26.46;39.36
65127;BME280;51927;49.080;19.652;2022-07-05T03:12:40;94576.63;;;26.45;39.24
65127;BME280;51927;49.080;19.652;2022-07-05T03:14:41;94582.78;;;26.46;39.18
65127;BME280;51927;49.080;19.652;2022-07-05T03:16:41;94582.78;;;26.46;39.66
65127;BME280;51927;49.080;19.652;2022-07-05T03:18:42;94584.69;;;26.45;39.37
65127;BME280;51927;49.080;19.652;2022-07-05T03:20:42;94584.69;;;26.45;39.53
65127;BME280;51927;49.080;19.652;2022-07-05T03:22:43;94586.56;;;26.45;39.56
65127;BME280;51927;49.080;19.652;2022-07-05T03:24:43;94580.44;;;26.44;39.52
65127;BME280;51927;49.080;19.652;2022-07-05T03:26:43;94579.31;;;26.45;39.62
65127;BME280;51927;49.080;19.652;2022-07-05T03:28:43;94580.09;;;26.46;39.32
65127;BME280;51927;49.080;19.652;2022-07-05T03:30:43;94585.47;;;26.46;39.49
65127;BME280;51927;49.080;19.652;2022-07-05T03:32:43;94574.72;;;26.46;39.55
65127;BME280;51927;49.080;19.652;2022-07-05T03:34:44;94574.72;;;26.46;39.80
65127;BME280;51927;49.080;19.652;2022-07-05T03:36:44;94575.84;;;26.45;39.84
65127;BME280;51927;49.080;19.652;2022-07-05T03:38:44;94567.78;;;26.45;39.81
65127;BME280;51927;49.080;19.652;2022-07-05T03:40:44;94567.78;;;26.45;39.90
65127;BME280;51927;49.080;19.652;2022-07-05T03:42:44;94565.91;;;26.45;39.94
65127;BME280;51927;49.080;19.652;2022-07-05T03:44:45;94573.94;;;26.45;39.63
65127;BME280;51927;49.080;19.652;2022-07-05T03:46:45;94568.59;;;26.45;39.69
65127;BME280;51927;49.080;19.652;2022-07-05T03:48:45;94575.06;;;26.44;39.88
65127;BME280;51927;49.080;19.652;2022-07-05T03:50:45;94568.91;;;26.44;39.88
65127;BME280;51927;49.080;19.652;2022-07-05T03:52:45;94575.06;;;26.44;39.79
65127;BME280;51927;49.080;19.652;2022-07-05T03:54:46;94575.06;;;26.44;39.80
65127;BME280;51927;49.080;19.652;2022-07-05T03:56:46;94573.94;;;26.45;39.45
65127;BME280;51927;49.080;19.652;2022-07-05T03:58:47;94580.44;;;26.44;39.95
65127;BME280;51927;49.080;19.652;2022-07-05T04:00:47;94578.53;;;26.45;39.94
65127;BME280;51927;49.080;19.652;2022-07-05T04:02:47;94569.69;;;26.44;39.79
65127;BME280;51927;49.080;19.652;2022-07-05T04:04:47;94578.53;;;26.45;39.78
65127;BME280;51927;49.080;19.652;2022-07-05T04:06:47;94578.53;;;26.45;39.75
65127;BME280;51927;49.080;19.652;2022-07-05T04:08:48;94577.75;;;26.44;39.69
65127;BME280;51927;49.080;19.652;2022-07-05T04:10:48;94580.44;;;26.44;39.67
65127;BME280;51927;49.080;19.652;2022-07-05T04:12:48;94581.19;;;26.45;39.96
65127;BME280;51927;49.080;19.652;2022-07-05T04:14:49;94578.53;;;26.45;40.15
65127;BME280;51927;49.080;19.652;2022-07-05T04:16:49;94575.06;;;26.44;40.03
65127;BME280;51927;49.080;19.652;2022-07-05T04:18:49;94575.84;;;26.45;40.11
65127;BME280;51927;49.080;19.652;2022-07-05T04:20:49;94582.00;;;26.45;40.24
65127;BME280;51927;49.080;19.652;2022-07-05T04:22:50;94574.28;;;26.44;39.99
65127;BME280;51927;49.080;19.652;2022-07-05T04:24:50;94580.44;;;26.44;40.10
65127;BME280;51927;49.080;19.652;2022-07-05T04:27:09;94573.94;;;26.45;40.00
65127;BME280;51927;49.080;19.652;2022-07-05T04:29:09;94580.44;;;26.44;39.83
65127;BME280;51927;49.080;19.652;2022-07-05T04:31:09;94582.00;;;26.45;40.00
65127;BME280;51927;49.080;19.652;2022-07-05T04:33:10;94580.44;;;26.44;39.83
65127;BME280;51927;49.080;19.652;2022-07-05T04:35:10;94593.53;;;26.46;40.06
65127;BME280;51927;49.080;19.652;2022-07-05T04:37:10;94588.16;;;26.46;39.73
65127;BME280;51927;49.080;19.652;2022-07-05T04:39:10;94590.06;;;26.45;40.07
65127;BME280;51927;49.080;19.652;2022-07-05T04:41:11;94602.69;;;26.45;39.99
65127;BME280;51927;49.080;19.652;2022-07-05T04:43:11;94603.50;;;26.45;39.74
65127;BME280;51927;49.080;19.652;2022-07-05T04:45:11;94605.38;;;26.45;39.97
65127;BME280;51927;49.080;19.652;2022-07-05T04:47:11;94608.84;;;26.45;39.93
65127;BME280;51927;49.080;19.652;2022-07-05T04:49:12;94616.91;;;26.45;39.86
65127;BME280;51927;49.080;19.652;2022-07-05T04:51:12;94616.09;;;26.45;39.93
65127;BME280;51927;49.080;19.652;2022-07-05T04:53:12;94623.06;;;26.46;39.80
65127;BME280;51927;49.080;19.652;2022-07-05T04:55:12;94624.97;;;26.45;39.87
65127;BME280;51927;49.080;19.652;2022-07-05T04:57:13;94625.75;;;26.46;39.91
65127;BME280;51927;49.080;19.652;2022-07-05T04:59:13;94624.97;;;26.45;39.92
65127;BME280;51927;49.080;19.652;2022-07-05T05:01:13;94630.34;;;26.45;40.24
65127;BME280;51927;49.080;19.652;2022-07-05T05:03:13;94630.34;;;26.45;40.23
65127;BME280;51927;49.080;19.652;2022-07-05T05:05:13;94629.53;;;26.45;40.01
65127;BME280;51927;49.080;19.652;2022-07-05T05:07:14;94633.81;;;26.46;40.15
65127;BME280;51927;49.080;19.652;2022-07-05T05:09:14;94641.84;;;26.46;40.11
65127;BME280;51927;49.080;19.652;2022-07-05T05:11:14;94642.63;;;26.46;40.10
65127;BME280;51927;49.080;19.652;2022-07-05T05:13:14;94637.59;;;26.45;40.26
65127;BME280;51927;49.080;19.652;2022-07-05T05:15:14;94648.34;;;26.45;40.32
65127;BME280;51927;49.080;19.652;2022-07-05T05:17:15;94634.13;;;26.44;40.30
65127;BME280;51927;49.080;19.652;2022-07-05T05:19:15;94628.75;;;26.44;39.97
65127;BME280;51927;49.080;19.652;2022-07-05T05:21:15;94637.91;;;26.43;40.30
65127;BME280;51927;49.080;19.652;2022-07-05T05:23:15;94641.41;;;26.44;40.13
65127;BME280;51927;49.080;19.652;2022-07-05T05:25:16;94634.91;;;26.45;40.28
65127;BME280;51927;49.080;19.652;2022-07-05T05:27:16;94627.19;;;26.43;40.08
65127;BME280;51927;49.080;19.652;2022-07-05T05:29:16;94643.28;;;26.43;40.14
65127;BME280;51927;49.080;19.652;2022-07-05T05:31:17;94632.56;;;26.43;40.28
65127;BME280;51927;49.080;19.652;2022-07-05T05:33:18;94627.19;;;26.43;40.36
65127;BME280;51927;49.080;19.652;2022-07-05T05:35:19;94636.81;;;26.44;40.44
65127;BME280;51927;49.080;19.652;2022-07-05T05:37:21;94634.13;;;26.44;40.29
65127;BME280;51927;49.080;19.652;2022-07-05T05:39:21;94623.38;;;26.44;40.24
65127;BME280;51927;49.080;19.652;2022-07-05T05:41:21;94627.19;;;26.43;40.61
65127;BME280;51927;49.080;19.652;2022-07-05T05:43:22;94627.19;;;26.43;40.63
65127;BME280;51927;49.080;19.652;2022-07-05T05:45:22;94637.91;;;26.43;40.68
65127;BME280;51927;49.080;19.652;2022-07-05T05:47:22;94638.72;;;26.44;40.72
65127;BME280;51927;49.080;19.652;2022-07-05T05:49:22;94640.59;;;26.43;40.56
65127;BME280;51927;49.080;19.652;2022-07-05T05:51:23;94631.78;;;26.43;40.63
65127;BME280;51927;49.080;19.652;2022-07-05T05:53:23;94631.00;;;26.42;40.79
65127;BME280;51927;49.080;19.652;2022-07-05T05:55:23;94633.34;;;26.44;40.78
65127;BME280;51927;49.080;19.652;2022-07-05T05:57:24;94633.34;;;26.44;40.73
65127;BME280;51927;49.080;19.652;2022-07-05T05:59:24;94627.19;;;26.43;41.05
65127;BME280;51927;49.080;19.652;2022-07-05T06:01:24;94626.06;;;26.44;40.94
65127;BME280;51927;49.080;19.652;2022-07-05T06:03:25;94635.72;;;26.45;41.16
65127;BME280;51927;49.080;19.652;2022-07-05T06:05:26;94634.91;;;26.45;41.25
65127;BME280;51927;49.080;19.652;2022-07-05T06:07:26;94632.50;;;26.52;41.01
65127;BME280;51927;49.080;19.652;2022-07-05T06:09:26;94645.84;;;26.61;41.17
65127;BME280;51927;49.080;19.652;2022-07-05T06:11:27;94652.16;;;26.65;41.31
65127;BME280;51927;49.080;19.652;2022-07-05T06:13:27;94660.34;;;26.68;41.62
65127;BME280;51927;49.080;19.652;2022-07-05T06:15:28;94661.91;;;26.69;41.81
65127;BME280;51927;49.080;19.652;2022-07-05T06:17:28;94665.81;;;26.72;41.80
65127;BME280;51927;49.080;19.652;2022-07-05T06:19:35;94677.63;;;26.38;44.09
65127;BME280;51927;49.080;19.652;2022-07-05T06:21:35;94685.31;;;25.97;45.63
65127;BME280;51927;49.080;19.652;2022-07-05T06:23:35;94680.19;;;25.83;46.42
65127;BME280;51927;49.080;19.652;2022-07-05T06:25:35;94677.56;;;25.66;47.41
65127;BME280;51927;49.080;19.652;2022-07-05T06:27:43;94680.75;;;25.59;47.97
65127;BME280;51927;49.080;19.652;2022-07-05T06:29:44;94683.53;;;25.71;48.38
65127;BME280;51927;49.080;19.652;2022-07-05T06:31:44;94683.47;;;25.50;48.99
65127;BME280;51927;49.080;19.652;2022-07-05T06:33:44;94693.59;;;25.45;49.25
65127;BME280;51927;49.080;19.652;2022-07-05T06:35:44;94695.84;;;25.34;49.73
65127;BME280;51927;49.080;19.652;2022-07-05T06:37:46;94698.66;;;25.37;51.14
65127;BME280;51927;49.080;19.652;2022-07-05T06:39:46;94696.00;;;25.20;51.16
65127;BME280;51927;49.080;19.652;2022-07-05T06:41:46;94701.06;;;25.21;51.64
65127;BME280;51927;49.080;19.652;2022-07-05T06:43:47;94694.25;;;25.24;51.58
65127;BME280;51927;49.080;19.652;2022-07-05T06:45:47;94697.59;;;25.12;51.84
65127;BME280;51927;49.080;19.652;2022-07-05T06:49:56;94697.00;;;24.98;51.93
65127;BME280;51927;49.080;19.652;2022-07-05T06:51:57;94693.22;;;24.99;52.21
65127;BME280;51927;49.080;19.652;2022-07-05T06:53:57;94690.69;;;25.02;52.34
65127;BME280;51927;49.080;19.652;2022-07-05T06:55:57;94689.28;;;25.05;52.26
65127;BME280;51927;49.080;19.652;2022-07-05T06:59:58;94693.22;;;24.99;52.70
65127;BME280;51927;49.080;19.652;2022-07-05T07:01:58;94701.44;;;24.85;53.50
65127;BME280;51927;49.080;19.652;2022-07-05T07:03:58;94704.78;;;24.64;54.41
65127;BME280;51927;49.080;19.652;2022-07-05T07:05:59;94709.03;;;24.74;53.99
65127;BME280;51927;49.080;19.652;2022-07-05T07:07:59;94715.31;;;24.61;54.63
65127;BME280;51927;49.080;19.652;2022-07-05T07:10:18;94721.63;;;24.65;54.61
65127;BME280;51927;49.080;19.652;2022-07-05T07:12:18;94713.25;;;24.40;54.91
65127;BME280;51927;49.080;19.652;2022-07-05T07:14:18;94707.56;;;24.24;55.43
65127;BME280;51927;49.080;19.652;2022-07-05T07:16:18;94693.09;;;24.34;55.76
65127;BME280;51927;49.080;19.652;2022-07-05T07:18:19;94700.31;;;24.51;55.16
65127;BME280;51927;49.080;19.652;2022-07-05T07:20:19;94698.31;;;24.48;55.04
65127;BME280;51927;49.080;19.652;2022-07-05T07:22:19;94696.06;;;24.24;56.49
65127;BME280;51927;49.080;19.652;2022-07-05T07:24:19;94694.03;;;24.38;55.96
65127;BME280;51927;49.080;19.652;2022-07-05T07:26:19;94695.75;;;24.43;56.03
65127;BME280;51927;49.080;19.652;2022-07-05T07:28:20;94693.88;;;24.43;56.36
65127;BME280;51927;49.080;19.652;2022-07-05T07:30:21;94696.88;;;24.50;55.94
65127;BME280;51927;49.080;19.652;2022-07-05T07:32:21;94695.28;;;24.32;56.82
65127;BME280;51927;49.080;19.652;2022-07-05T07:34:22;94690.41;;;24.43;56.05
65127;BME280;51927;49.080;19.652;2022-07-05T07:36:22;94701.75;;;24.40;56.54
65127;BME280;51927;49.080;19.652;2022-07-05T07:38:22;94690.91;;;24.45;55.87
65127;BME280;51927;49.080;19.652;2022-07-05T07:40:23;94701.44;;;24.32;56.52
65127;BME280;51927;49.080;19.652;2022-07-05T07:42:23;94686.16;;;24.15;57.30
65127;BME280;51927;49.080;19.652;2022-07-05T07:44:23;94695.59;;;24.13;57.78
65127;BME280;51927;49.080;19.652;2022-07-05T07:46:24;94688.81;;;24.07;58.13
65127;BME280;51927;49.080;19.652;2022-07-05T07:48:24;94690.22;;;24.13;57.26
65127;BME280;51927;49.080;19.652;2022-07-05T07:50:25;94686.91;;;23.98;57.62
65127;BME280;51927;49.080;19.652;2022-07-05T07:52:26;94691.94;;;23.91;58.43
65127;BME280;51927;49.080;19.652;2022-07-05T07:54:26;94691.63;;;23.93;58.29
65127;BME280;51927;49.080;19.652;2022-07-05T07:56:26;94696.81;;;23.98;57.91
65127;BME280;51927;49.080;19.652;2022-07-05T07:58:26;94683.59;;;24.02;58.38
65127;BME280;51927;49.080;19.652;2022-07-05T08:00:26;94684.56;;;24.06;58.16
65127;BME280;51927;49.080;19.652;2022-07-05T08:02:27;94679.03;;;23.93;58.11
65127;BME280;51927;49.080;19.652;2022-07-05T08:04:27;94688.09;;;23.75;58.77
65127;BME280;51927;49.080;19.652;2022-07-05T08:06:27;94683.22;;;23.77;58.90
65127;BME280;51927;49.080;19.652;2022-07-05T08:08:27;94677.47;;;24.10;58.04
65127;BME280;51927;49.080;19.652;2022-07-05T08:10:27;94681.56;;;23.98;58.28
65127;BME280;51927;49.080;19.652;2022-07-05T08:12:28;94679.50;;;23.95;58.60
65127;BME280;51927;49.080;19.652;2022-07-05T08:14:28;94680.47;;;24.00;58.31
65127;BME280;51927;49.080;19.652;2022-07-05T08:16:28;94671.66;;;24.08;57.85
65127;BME280;51927;49.080;19.652;2022-07-05T08:18:28;94667.25;;;23.94;57.98
65127;BME280;51927;49.080;19.652;2022-07-05T08:22:57;94656.06;;;23.92;58.09
65127;BME280;51927;49.080;19.652;2022-07-05T08:24:58;94665.47;;;23.81;58.50
65127;BME280;51927;49.080;19.652;2022-07-05T08:26:58;94677.22;;;23.71;58.64
65127;BME280;51927;49.080;19.652;2022-07-05T08:28:58;94678.16;;;23.75;59.17
65127;BME280;51927;49.080;19.652;2022-07-05T08:30:59;94676.53;;;24.06;57.90
65127;BME280;51927;49.080;19.652;2022-07-05T08:32:59;94680.47;;;24.08;57.59
65127;BME280;51927;49.080;19.652;2022-07-05T08:34:59;94674.81;;;24.01;58.35
65127;BME280;51927;49.080;19.652;2022-07-05T08:36:59;94678.00;;;23.72;58.54
65127;BME280;51927;49.080;19.652;2022-07-05T08:39:00;94677.66;;;23.65;59.74
65127;BME280;51927;49.080;19.652;2022-07-05T08:41:00;94672.38;;;23.82;59.01
65127;BME280;51927;49.080;19.652;2022-07-05T08:43:00;94668.91;;;23.73;58.84
65127;BME280;51927;49.080;19.652;2022-07-05T08:45:03;94677.34;;;23.66;59.28
65127;BME280;51927;49.080;19.652;2022-07-05T08:47:03;94664.19;;;23.78;59.06
65127;BME280;51927;49.080;19.652;2022-07-05T08:49:04;94669.28;;;23.97;58.45
65127;BME280;51927;49.080;19.652;2022-07-05T08:51:16;94667.25;;;24.03;58.25
65127;BME280;51927;49.080;19.652;2022-07-05T08:53:20;94664.22;;;23.87;58.66
65127;BME280;51927;49.080;19.652;2022-07-05T08:55:20;94666.44;;;23.94;58.57
65127;BME280;51927;49.080;19.652;2022-07-05T08:57:21;94664.56;;;23.94;58.44
65127;BME280;51927;49.080;19.652;2022-07-05T08:59:21;94668.03;;;24.04;58.87
65127;BME280;51927;49.080;19.652;2022-07-05T09:01:22;94666.00;;;24.09;58.25
65127;BME280;51927;49.080;19.652;2022-07-05T09:03:22;94660.34;;;24.11;58.43
65127;BME280;51927;49.080;19.652;2022-07-05T09:05:25;94664.25;;;24.05;58.50
65127;BME280;51927;49.080;19.652;2022-07-05T09:07:26;94661.91;;;23.94;59.36
65127;BME280;51927;49.080;19.652;2022-07-05T09:09:29;94658.75;;;24.10;58.11
65127;BME280;51927;49.080;19.652;2022-07-05T09:11:34;94654.84;;;24.07;58.50
65127;BME280;51927;49.080;19.652;2022-07-05T09:13:36;94656.38;;;24.08;58.70
65127;BME280;51927;49.080;19.652;2022-07-05T09:15:39;94650.59;;;24.24;58.09
65127;BME280;51927;49.080;19.652;2022-07-05T09:17:46;94654.34;;;24.31;56.91
65127;BME280;51927;49.080;19.652;2022-07-05T09:22:06;94649.19;;;24.61;55.52
65127;BME280;51927;49.080;19.652;2022-07-05T09:24:09;94648.19;;;24.92;54.65
65127;BME280;51927;49.080;19.652;2022-07-05T09:26:09;94648.78;;;25.06;53.08
65127;BME280;51927;49.080;19.652;2022-07-05T09:28:10;94648.41;;;25.17;52.29
65127;BME280;51927;49.080;19.652;2022-07-05T09:30:10;94650.59;;;25.23;52.01
65127;BME280;51927;49.080;19.652;2022-07-05T09:32:22;94652.81;;;25.30;52.14
65127;BME280;51927;49.080;19.652;2022-07-05T09:34:22;94655.31;;;25.35;51.93
65127;BME280;51927;49.080;19.652;2022-07-05T09:36:23;94656.88;;;25.36;51.66
65127;BME280;51927;49.080;19.652;2022-07-05T09:38:24;94667.75;;;25.40;51.32
65127;BME280;51927;49.080;19.652;2022-07-05T09:40:24;94659.06;;;25.43;51.49
65127;BME280;51927;49.080;19.652;2022-07-05T09:42:24;94659.19;;;25.47;51.37
65127;BME280;51927;49.080;19.652;2022-07-05T09:44:25;94658.09;;;25.48;51.68
65127;BME280;51927;49.080;19.652;2022-07-05T09:46:29;94652.41;;;25.49;52.10
65127;BME280;51927;49.080;19.652;2022-07-05T09:48:31;94654.91;;;25.54;51.80
65127;BME280;51927;49.080;19.652;2022-07-05T09:50:35;94644.66;;;25.56;51.35
65127;BME280;51927;49.080;19.652;2022-07-05T09:52:36;94636.59;;;25.56;51.88
65127;BME280;51927;49.080;19.652;2022-07-05T09:54:37;94636.28;;;25.58;51.78
65127;BME280;51927;49.080;19.652;2022-07-05T09:56:46;94628.69;;;25.60;51.80
65127;BME280;51927;49.080;19.652;2022-07-05T09:58:47;94621.91;;;25.63;51.98
65127;BME280;51927;49.080;19.652;2022-07-05T10:00:47;94630.41;;;25.65;51.76
65127;BME280;51927;49.080;19.652;2022-07-05T10:02:54;94639.72;;;25.67;51.56
65127;BME280;51927;49.080;19.652;2022-07-05T10:05:10;94632.13;;;25.69;51.37
65127;BME280;51927;49.080;19.652;2022-07-05T10:07:11;94635.25;;;25.71;51.39
65127;BME280;51927;49.080;19.652;2022-07-05T10:09:28;94633.84;;;25.74;51.11
65127;BME280;51927;49.080;19.652;2022-07-05T10:11:28;94630.81;;;25.75;51.25
65127;BME280;51927;49.080;19.652;2022-07-05T10:13:29;94627.81;;;25.77;51.00
65127;BME280;51927;49.080;19.652;2022-07-05T10:15:30;94618.31;;;25.79;50.98
65127;BME280;51927;49.080;19.652;2022-07-05T10:17:30;94611.84;;;25.80;50.88
65127;BME280;51927;49.080;19.652;2022-07-05T10:19:36;94613.13;;;25.83;50.63
65127;BME280;51927;49.080;19.652;2022-07-05T10:21:41;94613.88;;;25.84;50.43
65127;BME280;51927;49.080;19.652;2022-07-05T10:23:46;94614.34;;;25.86;50.51
65127;BME280;51927;49.080;19.652;2022-07-05T10:25:47;94611.34;;;25.87;50.92
65127;BME280;51927;49.080;19.652;2022-07-05T10:27:48;94609.44;;;25.88;50.79
65127;BME280;51927;49.080;19.652;2022-07-05T10:30:00;94609.91;;;25.90;50.56
65127;BME280;51927;49.080;19.652;2022-07-05T10:32:01;94601.97;;;25.93;50.52
65127;BME280;51927;49.080;19.652;2022-07-05T10:34:02;94607.34;;;25.93;50.64
65127;BME280;51927;49.080;19.652;2022-07-05T10:36:09;94606.22;;;25.94;50.88
65127;BME280;51927;49.080;19.652;2022-07-05T10:38:10;94607.50;;;25.97;50.85
65127;BME280;51927;49.080;19.652;2022-07-05T10:40:11;94605.59;;;25.97;50.67
65127;BME280;51927;49.080;19.652;2022-07-05T10:42:12;94601.81;;;25.98;50.66